Sacramento, California
Traffic Map
Current Weather Conditions
Sacramento, California
Clear Haze
Clear
50°
Feels Like: 50°
Wind Chill: 50° Ceiling: Unl
Heat Index: 50° Visibility: 1.5mi
Dew Point: 48° Wind: 0mph
Humidity: 93% Direction: ° ()
Pressure: 30.19in Gusts: 0mph
Raw Report DataKSAC 130903Z AUTO 00000KT 1 1/2SM BR CLR 10/09 A3019 RMK AO2 T01000089
Traffic Incident Summary
Active as of:
Severity:
Category:
InformationThere was an issue retrieving the traffic information for this location. Please try a different location or try again shortly.
Advertisements
Track Severe Weather on mobile